sensor_id;sensor_type;location;lat;lon;timestamp;P1;durP1;ratioP1;P2;durP2;ratioP2
55603;SDS011;41468;48.838;9.330;2023-10-19T00:02:09;10.97;;;9.83;;
55603;SDS011;41468;48.838;9.330;2023-10-19T00:04:42;11.00;;;9.63;;
55603;SDS011;41468;48.838;9.330;2023-10-19T00:07:09;10.93;;;9.83;;
55603;SDS011;41468;48.838;9.330;2023-10-19T00:09:42;12.17;;;9.87;;
55603;SDS011;41468;48.838;9.330;2023-10-19T00:12:14;10.67;;;9.47;;
55603;SDS011;41468;48.838;9.330;2023-10-19T00:14:42;10.70;;;9.27;;
55603;SDS011;41468;48.838;9.330;2023-10-19T00:17:09;10.53;;;9.33;;
55603;SDS011;41468;48.838;9.330;2023-10-19T00:19:38;10.17;;;9.17;;
55603;SDS011;41468;48.838;9.330;2023-10-19T00:22:06;10.13;;;9.13;;
55603;SDS011;41468;48.838;9.330;2023-10-19T00:24:47;10.57;;;9.47;;
55603;SDS011;41468;48.838;9.330;2023-10-19T00:27:18;10.37;;;9.37;;
55603;SDS011;41468;48.838;9.330;2023-10-19T00:29:48;11.87;;;9.77;;
55603;SDS011;41468;48.838;9.330;2023-10-19T00:32:16;10.40;;;9.23;;
55603;SDS011;41468;48.838;9.330;2023-10-19T00:34:44;10.33;;;9.23;;
55603;SDS011;41468;48.838;9.330;2023-10-19T00:37:19;13.47;;;9.90;;
55603;SDS011;41468;48.838;9.330;2023-10-19T00:39:53;11.33;;;9.10;;
55603;SDS011;41468;48.838;9.330;2023-10-19T00:42:22;11.10;;;8.67;;
55603;SDS011;41468;48.838;9.330;2023-10-19T00:44:57;9.97;;;9.00;;
55603;SDS011;41468;48.838;9.330;2023-10-19T00:47:31;9.57;;;8.60;;
55603;SDS011;41468;48.838;9.330;2023-10-19T00:50:07;10.90;;;8.50;;
55603;SDS011;41468;48.838;9.330;2023-10-19T00:52:42;9.80;;;8.80;;
55603;SDS011;41468;48.838;9.330;2023-10-19T00:55:23;9.10;;;8.20;;
55603;SDS011;41468;48.838;9.330;2023-10-19T00:57:53;10.73;;;8.37;;
55603;SDS011;41468;48.838;9.330;2023-10-19T01:00:21;9.83;;;8.63;;
55603;SDS011;41468;48.838;9.330;2023-10-19T01:02:59;11.00;;;8.10;;
55603;SDS011;41468;48.838;9.330;2023-10-19T01:05:27;8.77;;;7.87;;
55603;SDS011;41468;48.838;9.330;2023-10-19T01:08:03;9.67;;;7.53;;
55603;SDS011;41468;48.838;9.330;2023-10-19T01:10:41;9.53;;;8.20;;
55603;SDS011;41468;48.838;9.330;2023-10-19T01:13:10;11.30;;;7.77;;
55603;SDS011;41468;48.838;9.330;2023-10-19T01:15:38;11.03;;;7.50;;
55603;SDS011;41468;48.838;9.330;2023-10-19T01:18:05;8.60;;;7.80;;
55603;SDS011;41468;48.838;9.330;2023-10-19T01:20:33;9.10;;;8.07;;
55603;SDS011;41468;48.838;9.330;2023-10-19T01:23:14;9.00;;;8.20;;
55603;SDS011;41468;48.838;9.330;2023-10-19T01:25:48;9.93;;;8.47;;
55603;SDS011;41468;48.838;9.330;2023-10-19T01:28:29;9.83;;;8.40;;
55603;SDS011;41468;48.838;9.330;2023-10-19T01:31:19;10.43;;;8.20;;
55603;SDS011;41468;48.838;9.330;2023-10-19T01:33:49;10.20;;;7.93;;
55603;SDS011;41468;48.838;9.330;2023-10-19T01:36:17;9.83;;;7.67;;
55603;SDS011;41468;48.838;9.330;2023-10-19T01:38:50;7.93;;;7.00;;
55603;SDS011;41468;48.838;9.330;2023-10-19T01:41:25;8.10;;;6.37;;
55603;SDS011;41468;48.838;9.330;2023-10-19T01:43:53;6.67;;;5.87;;
55603;SDS011;41468;48.838;9.330;2023-10-19T01:46:22;7.83;;;6.13;;
55603;SDS011;41468;48.838;9.330;2023-10-19T01:48:52;9.17;;;5.53;;
55603;SDS011;41468;48.838;9.330;2023-10-19T01:51:35;10.20;;;5.53;;
55603;SDS011;41468;48.838;9.330;2023-10-19T01:54:06;7.73;;;4.93;;
55603;SDS011;41468;48.838;9.330;2023-10-19T01:56:34;6.33;;;4.73;;
55603;SDS011;41468;48.838;9.330;2023-10-19T01:59:05;6.50;;;4.57;;
55603;SDS011;41468;48.838;9.330;2023-10-19T02:01:34;5.27;;;3.97;;
55603;SDS011;41468;48.838;9.330;2023-10-19T02:04:05;4.87;;;4.33;;
55603;SDS011;41468;48.838;9.330;2023-10-19T02:06:33;7.57;;;4.10;;
55603;SDS011;41468;48.838;9.330;2023-10-19T02:09:02;5.13;;;4.00;;
55603;SDS011;41468;48.838;9.330;2023-10-19T02:11:55;10.23;;;4.40;;
55603;SDS011;41468;48.838;9.330;2023-10-19T02:14:27;6.17;;;4.53;;
55603;SDS011;41468;48.838;9.330;2023-10-19T02:16:59;6.70;;;4.10;;
55603;SDS011;41468;48.838;9.330;2023-10-19T02:19:27;5.40;;;4.33;;
55603;SDS011;41468;48.838;9.330;2023-10-19T02:21:57;6.20;;;4.13;;
55603;SDS011;41468;48.838;9.330;2023-10-19T02:24:26;6.13;;;4.10;;
55603;SDS011;41468;48.838;9.330;2023-10-19T02:26:54;6.77;;;4.20;;
55603;SDS011;41468;48.838;9.330;2023-10-19T02:29:23;4.40;;;4.00;;
55603;SDS011;41468;48.838;9.330;2023-10-19T02:31:50;5.00;;;4.40;;
55603;SDS011;41468;48.838;9.330;2023-10-19T02:34:17;4.80;;;4.40;;
55603;SDS011;41468;48.838;9.330;2023-10-19T02:36:44;5.23;;;4.80;;
55603;SDS011;41468;48.838;9.330;2023-10-19T02:39:13;7.77;;;4.57;;
55603;SDS011;41468;48.838;9.330;2023-10-19T02:41:44;6.87;;;5.23;;
55603;SDS011;41468;48.838;9.330;2023-10-19T02:44:14;8.13;;;4.80;;
55603;SDS011;41468;48.838;9.330;2023-10-19T02:46:43;6.43;;;5.67;;
55603;SDS011;41468;48.838;9.330;2023-10-19T02:49:13;6.13;;;5.50;;
55603;SDS011;41468;48.838;9.330;2023-10-19T02:51:50;7.33;;;5.90;;
55603;SDS011;41468;48.838;9.330;2023-10-19T02:54:18;7.03;;;6.07;;
55603;SDS011;41468;48.838;9.330;2023-10-19T02:56:50;11.13;;;6.07;;
55603;SDS011;41468;48.838;9.330;2023-10-19T02:59:19;11.30;;;6.10;;
55603;SDS011;41468;48.838;9.330;2023-10-19T03:02:00;6.23;;;5.63;;
55603;SDS011;41468;48.838;9.330;2023-10-19T03:04:45;7.07;;;5.97;;
55603;SDS011;41468;48.838;9.330;2023-10-19T03:07:24;7.40;;;5.60;;
55603;SDS011;41468;48.838;9.330;2023-10-19T03:09:50;7.30;;;6.07;;
55603;SDS011;41468;48.838;9.330;2023-10-19T03:12:21;7.00;;;6.30;;
55603;SDS011;41468;48.838;9.330;2023-10-19T03:14:52;7.13;;;5.90;;
55603;SDS011;41468;48.838;9.330;2023-10-19T03:17:18;6.30;;;5.13;;
55603;SDS011;41468;48.838;9.330;2023-10-19T03:19:45;5.60;;;4.50;;
55603;SDS011;41468;48.838;9.330;2023-10-19T03:22:12;4.77;;;4.37;;
55603;SDS011;41468;48.838;9.330;2023-10-19T03:24:41;5.23;;;4.00;;
55603;SDS011;41468;48.838;9.330;2023-10-19T03:27:10;4.40;;;4.00;;
55603;SDS011;41468;48.838;9.330;2023-10-19T03:29:51;8.33;;;4.37;;
55603;SDS011;41468;48.838;9.330;2023-10-19T03:32:22;6.10;;;4.23;;
55603;SDS011;41468;48.838;9.330;2023-10-19T03:34:55;4.30;;;3.90;;
55603;SDS011;41468;48.838;9.330;2023-10-19T03:37:27;4.80;;;4.20;;
55603;SDS011;41468;48.838;9.330;2023-10-19T03:39:58;6.57;;;4.30;;
55603;SDS011;41468;48.838;9.330;2023-10-19T03:42:25;5.83;;;4.40;;
55603;SDS011;41468;48.838;9.330;2023-10-19T03:44:54;5.10;;;4.60;;
55603;SDS011;41468;48.838;9.330;2023-10-19T03:47:22;7.73;;;4.07;;
55603;SDS011;41468;48.838;9.330;2023-10-19T03:49:53;4.70;;;4.30;;
55603;SDS011;41468;48.838;9.330;2023-10-19T03:52:20;5.93;;;4.50;;
55603;SDS011;41468;48.838;9.330;2023-10-19T03:54:48;6.13;;;5.00;;
55603;SDS011;41468;48.838;9.330;2023-10-19T03:57:16;6.73;;;4.37;;
55603;SDS011;41468;48.838;9.330;2023-10-19T03:59:51;4.90;;;4.40;;
55603;SDS011;41468;48.838;9.330;2023-10-19T04:02:25;4.30;;;3.90;;
55603;SDS011;41468;48.838;9.330;2023-10-19T04:04:56;4.57;;;4.17;;
55603;SDS011;41468;48.838;9.330;2023-10-19T04:07:24;11.20;;;4.27;;
55603;SDS011;41468;48.838;9.330;2023-10-19T04:09:58;4.97;;;4.30;;
55603;SDS011;41468;48.838;9.330;2023-10-19T04:12:30;7.30;;;4.00;;
55603;SDS011;41468;48.838;9.330;2023-10-19T04:14:58;5.37;;;4.33;;
55603;SDS011;41468;48.838;9.330;2023-10-19T04:17:38;4.30;;;3.90;;
55603;SDS011;41468;48.838;9.330;2023-10-19T04:20:09;5.30;;;4.30;;
55603;SDS011;41468;48.838;9.330;2023-10-19T04:22:56;4.40;;;4.00;;
55603;SDS011;41468;48.838;9.330;2023-10-19T04:25:25;4.67;;;3.93;;
55603;SDS011;41468;48.838;9.330;2023-10-19T04:27:52;4.23;;;3.83;;
55603;SDS011;41468;48.838;9.330;2023-10-19T04:30:20;4.63;;;4.03;;
55603;SDS011;41468;48.838;9.330;2023-10-19T04:32:51;3.90;;;3.60;;
55603;SDS011;41468;48.838;9.330;2023-10-19T04:35:17;5.93;;;4.20;;
55603;SDS011;41468;48.838;9.330;2023-10-19T04:37:52;5.13;;;3.97;;
55603;SDS011;41468;48.838;9.330;2023-10-19T04:40:20;8.33;;;4.10;;
55603;SDS011;41468;48.838;9.330;2023-10-19T04:42:52;5.07;;;3.83;;
55603;SDS011;41468;48.838;9.330;2023-10-19T04:45:20;6.60;;;3.53;;
55603;SDS011;41468;48.838;9.330;2023-10-19T04:47:50;5.27;;;4.03;;
55603;SDS011;41468;48.838;9.330;2023-10-19T04:50:19;4.00;;;3.30;;
55603;SDS011;41468;48.838;9.330;2023-10-19T04:52:46;4.43;;;3.70;;
55603;SDS011;41468;48.838;9.330;2023-10-19T04:55:14;4.13;;;3.73;;
55603;SDS011;41468;48.838;9.330;2023-10-19T04:57:51;4.17;;;3.40;;
55603;SDS011;41468;48.838;9.330;2023-10-19T05:00:18;4.43;;;3.77;;
55603;SDS011;41468;48.838;9.330;2023-10-19T05:02:48;4.73;;;3.90;;
55603;SDS011;41468;48.838;9.330;2023-10-19T05:05:14;4.90;;;3.63;;
55603;SDS011;41468;48.838;9.330;2023-10-19T05:07:43;3.67;;;3.30;;
55603;SDS011;41468;48.838;9.330;2023-10-19T05:10:11;4.60;;;3.50;;
55603;SDS011;41468;48.838;9.330;2023-10-19T05:12:37;3.60;;;3.40;;
55603;SDS011;41468;48.838;9.330;2023-10-19T05:15:04;4.77;;;3.40;;
55603;SDS011;41468;48.838;9.330;2023-10-19T05:17:32;4.93;;;3.80;;
55603;SDS011;41468;48.838;9.330;2023-10-19T05:19:59;3.60;;;3.30;;
55603;SDS011;41468;48.838;9.330;2023-10-19T05:22:26;3.70;;;3.40;;
55603;SDS011;41468;48.838;9.330;2023-10-19T05:24:56;12.47;;;6.73;;
55603;SDS011;41468;48.838;9.330;2023-10-19T05:27:23;8.13;;;5.93;;
55603;SDS011;41468;48.838;9.330;2023-10-19T05:30:01;8.43;;;7.17;;
55603;SDS011;41468;48.838;9.330;2023-10-19T05:32:38;5.13;;;4.60;;
55603;SDS011;41468;48.838;9.330;2023-10-19T05:35:06;8.83;;;5.60;;
55603;SDS011;41468;48.838;9.330;2023-10-19T05:37:33;9.10;;;7.67;;
55603;SDS011;41468;48.838;9.330;2023-10-19T05:40:00;7.50;;;6.30;;
55603;SDS011;41468;48.838;9.330;2023-10-19T05:42:31;5.07;;;4.43;;
55603;SDS011;41468;48.838;9.330;2023-10-19T05:45:03;4.67;;;3.90;;
55603;SDS011;41468;48.838;9.330;2023-10-19T05:47:31;8.10;;;3.93;;
55603;SDS011;41468;48.838;9.330;2023-10-19T05:49:58;5.87;;;3.83;;
55603;SDS011;41468;48.838;9.330;2023-10-19T05:52:25;5.03;;;4.53;;
55603;SDS011;41468;48.838;9.330;2023-10-19T05:54:52;6.23;;;5.07;;
55603;SDS011;41468;48.838;9.330;2023-10-19T05:57:20;6.00;;;4.40;;
55603;SDS011;41468;48.838;9.330;2023-10-19T05:59:48;6.43;;;5.83;;
55603;SDS011;41468;48.838;9.330;2023-10-19T06:02:15;8.37;;;7.40;;
55603;SDS011;41468;48.838;9.330;2023-10-19T06:04:54;6.90;;;5.43;;
55603;SDS011;41468;48.838;9.330;2023-10-19T06:07:23;5.53;;;4.17;;
55603;SDS011;41468;48.838;9.330;2023-10-19T06:09:51;5.13;;;4.27;;
55603;SDS011;41468;48.838;9.330;2023-10-19T06:12:18;4.70;;;4.23;;
55603;SDS011;41468;48.838;9.330;2023-10-19T06:14:45;6.43;;;4.63;;
55603;SDS011;41468;48.838;9.330;2023-10-19T06:17:12;6.23;;;4.60;;
55603;SDS011;41468;48.838;9.330;2023-10-19T06:19:45;5.60;;;4.63;;
55603;SDS011;41468;48.838;9.330;2023-10-19T06:22:12;4.40;;;4.07;;
55603;SDS011;41468;48.838;9.330;2023-10-19T06:24:42;4.83;;;4.33;;
55603;SDS011;41468;48.838;9.330;2023-10-19T06:27:10;6.17;;;4.50;;
55603;SDS011;41468;48.838;9.330;2023-10-19T06:29:37;5.97;;;4.77;;
55603;SDS011;41468;48.838;9.330;2023-10-19T06:32:03;5.63;;;5.13;;
55603;SDS011;41468;48.838;9.330;2023-10-19T06:34:30;7.60;;;6.07;;
55603;SDS011;41468;48.838;9.330;2023-10-19T06:36:58;7.10;;;5.90;;
55603;SDS011;41468;48.838;9.330;2023-10-19T06:39:25;8.33;;;6.23;;
55603;SDS011;41468;48.838;9.330;2023-10-19T06:41:52;6.73;;;6.13;;
55603;SDS011;41468;48.838;9.330;2023-10-19T06:44:29;6.23;;;5.60;;
55603;SDS011;41468;48.838;9.330;2023-10-19T06:46:56;7.00;;;5.90;;
55603;SDS011;41468;48.838;9.330;2023-10-19T06:49:23;6.83;;;6.13;;
55603;SDS011;41468;48.838;9.330;2023-10-19T06:51:51;7.07;;;6.00;;
55603;SDS011;41468;48.838;9.330;2023-10-19T06:54:17;6.00;;;5.40;;
55603;SDS011;41468;48.838;9.330;2023-10-19T06:56:44;5.70;;;5.20;;
55603;SDS011;41468;48.838;9.330;2023-10-19T06:59:12;7.57;;;6.30;;
55603;SDS011;41468;48.838;9.330;2023-10-19T07:01:39;6.97;;;5.93;;
55603;SDS011;41468;48.838;9.330;2023-10-19T07:04:06;5.90;;;5.40;;
55603;SDS011;41468;48.838;9.330;2023-10-19T07:06:33;5.80;;;5.30;;
55603;SDS011;41468;48.838;9.330;2023-10-19T07:09:00;6.23;;;5.73;;
55603;SDS011;41468;48.838;9.330;2023-10-19T07:11:30;6.70;;;6.00;;
55603;SDS011;41468;48.838;9.330;2023-10-19T07:13:56;7.03;;;6.43;;
55603;SDS011;41468;48.838;9.330;2023-10-19T07:16:35;7.80;;;5.67;;
55603;SDS011;41468;48.838;9.330;2023-10-19T07:19:02;6.43;;;5.70;;
55603;SDS011;41468;48.838;9.330;2023-10-19T07:21:29;5.97;;;5.43;;
55603;SDS011;41468;48.838;9.330;2023-10-19T07:23:58;6.97;;;6.23;;
55603;SDS011;41468;48.838;9.330;2023-10-19T07:26:27;8.00;;;6.03;;
55603;SDS011;41468;48.838;9.330;2023-10-19T07:28:58;5.40;;;4.90;;
55603;SDS011;41468;48.838;9.330;2023-10-19T07:31:25;8.57;;;5.97;;
55603;SDS011;41468;48.838;9.330;2023-10-19T07:33:53;8.53;;;6.13;;
55603;SDS011;41468;48.838;9.330;2023-10-19T07:36:23;6.80;;;5.73;;
55603;SDS011;41468;48.838;9.330;2023-10-19T07:38:51;7.77;;;5.90;;
55603;SDS011;41468;48.838;9.330;2023-10-19T07:41:18;6.20;;;5.60;;
55603;SDS011;41468;48.838;9.330;2023-10-19T07:43:45;7.40;;;5.30;;
55603;SDS011;41468;48.838;9.330;2023-10-19T07:46:12;7.90;;;5.37;;
55603;SDS011;41468;48.838;9.330;2023-10-19T07:48:43;7.83;;;5.40;;
55603;SDS011;41468;48.838;9.330;2023-10-19T07:51:10;7.13;;;5.47;;
55603;SDS011;41468;48.838;9.330;2023-10-19T07:53:37;5.53;;;5.03;;
55603;SDS011;41468;48.838;9.330;2023-10-19T07:56:04;6.00;;;5.40;;
55603;SDS011;41468;48.838;9.330;2023-10-19T07:58:31;5.50;;;5.03;;
55603;SDS011;41468;48.838;9.330;2023-10-19T08:00:58;5.93;;;5.37;;
55603;SDS011;41468;48.838;9.330;2023-10-19T08:03:25;6.33;;;5.57;;
55603;SDS011;41468;48.838;9.330;2023-10-19T08:05:52;5.37;;;4.97;;
55603;SDS011;41468;48.838;9.330;2023-10-19T08:08:18;7.37;;;5.17;;
55603;SDS011;41468;48.838;9.330;2023-10-19T08:10:45;5.40;;;5.00;;
55603;SDS011;41468;48.838;9.330;2023-10-19T08:13:13;6.60;;;4.83;;
55603;SDS011;41468;48.838;9.330;2023-10-19T08:15:40;5.13;;;4.73;;
55603;SDS011;41468;48.838;9.330;2023-10-19T08:18:07;5.30;;;4.80;;
55603;SDS011;41468;48.838;9.330;2023-10-19T08:20:34;5.57;;;4.97;;
55603;SDS011;41468;48.838;9.330;2023-10-19T08:23:03;5.63;;;4.50;;
55603;SDS011;41468;48.838;9.330;2023-10-19T08:25:32;4.70;;;4.30;;
55603;SDS011;41468;48.838;9.330;2023-10-19T08:28:19;5.00;;;4.60;;
55603;SDS011;41468;48.838;9.330;2023-10-19T08:30:46;6.03;;;3.93;;
55603;SDS011;41468;48.838;9.330;2023-10-19T08:33:24;4.67;;;4.27;;
55603;SDS011;41468;48.838;9.330;2023-10-19T08:35:55;5.10;;;4.60;;
55603;SDS011;41468;48.838;9.330;2023-10-19T08:38:27;6.17;;;5.23;;
55603;SDS011;41468;48.838;9.330;2023-10-19T08:40:55;5.57;;;4.20;;
55603;SDS011;41468;48.838;9.330;2023-10-19T08:43:23;5.57;;;4.70;;
55603;SDS011;41468;48.838;9.330;2023-10-19T08:45:50;4.10;;;3.80;;
55603;SDS011;41468;48.838;9.330;2023-10-19T08:48:17;6.57;;;4.23;;
55603;SDS011;41468;48.838;9.330;2023-10-19T08:50:45;4.50;;;3.53;;
55603;SDS011;41468;48.838;9.330;2023-10-19T08:53:12;4.23;;;3.83;;
55603;SDS011;41468;48.838;9.330;2023-10-19T08:55:41;3.97;;;3.67;;
55603;SDS011;41468;48.838;9.330;2023-10-19T08:58:15;5.13;;;3.80;;
55603;SDS011;41468;48.838;9.330;2023-10-19T09:00:48;6.30;;;3.40;;
55603;SDS011;41468;48.838;9.330;2023-10-19T09:03:21;4.20;;;3.83;;
55603;SDS011;41468;48.838;9.330;2023-10-19T09:05:52;3.70;;;3.40;;
55603;SDS011;41468;48.838;9.330;2023-10-19T09:08:19;3.90;;;3.60;;
55603;SDS011;41468;48.838;9.330;2023-10-19T09:10:49;6.53;;;3.27;;
55603;SDS011;41468;48.838;9.330;2023-10-19T09:13:19;3.83;;;3.23;;
55603;SDS011;41468;48.838;9.330;2023-10-19T09:15:46;3.28;;;3.08;;
55603;SDS011;41468;48.838;9.330;2023-10-19T09:18:16;3.30;;;2.83;;
55603;SDS011;41468;48.838;9.330;2023-10-19T09:20:45;4.50;;;2.78;;
55603;SDS011;41468;48.838;9.330;2023-10-19T09:23:24;5.75;;;3.33;;
55603;SDS011;41468;48.838;9.330;2023-10-19T09:25:52;4.30;;;3.05;;
55603;SDS011;41468;48.838;9.330;2023-10-19T09:28:20;3.30;;;2.60;;
55603;SDS011;41468;48.838;9.330;2023-10-19T09:30:48;4.32;;;2.42;;
55603;SDS011;41468;48.838;9.330;2023-10-19T09:33:16;4.32;;;2.40;;
55603;SDS011;41468;48.838;9.330;2023-10-19T09:35:45;2.70;;;2.50;;
55603;SDS011;41468;48.838;9.330;2023-10-19T09:38:17;2.70;;;2.45;;
55603;SDS011;41468;48.838;9.330;2023-10-19T09:40:52;4.35;;;2.70;;
55603;SDS011;41468;48.838;9.330;2023-10-19T09:43:27;3.95;;;2.70;;
55603;SDS011;41468;48.838;9.330;2023-10-19T09:46:00;4.90;;;2.83;;
55603;SDS011;41468;48.838;9.330;2023-10-19T09:48:32;2.85;;;2.60;;
55603;SDS011;41468;48.838;9.330;2023-10-19T09:51:02;3.67;;;2.80;;
55603;SDS011;41468;48.838;9.330;2023-10-19T09:53:29;3.67;;;3.05;;
55603;SDS011;41468;48.838;9.330;2023-10-19T09:55:58;5.88;;;3.30;;
55603;SDS011;41468;48.838;9.330;2023-10-19T09:58:31;7.95;;;3.35;;
55603;SDS011;41468;48.838;9.330;2023-10-19T10:01:04;4.25;;;3.22;;
55603;SDS011;41468;48.838;9.330;2023-10-19T10:03:41;3.92;;;3.10;;
55603;SDS011;41468;48.838;9.330;2023-10-19T10:06:14;3.22;;;2.78;;
55603;SDS011;41468;48.838;9.330;2023-10-19T10:08:45;2.85;;;2.60;;
55603;SDS011;41468;48.838;9.330;2023-10-19T10:11:25;3.88;;;2.70;;
55603;SDS011;41468;48.838;9.330;2023-10-19T10:13:54;3.85;;;3.05;;
55603;SDS011;41468;48.838;9.330;2023-10-19T10:16:23;2.80;;;2.60;;
55603;SDS011;41468;48.838;9.330;2023-10-19T10:18:53;6.30;;;2.80;;
55603;SDS011;41468;48.838;9.330;2023-10-19T10:21:28;2.97;;;2.60;;
55603;SDS011;41468;48.838;9.330;2023-10-19T10:23:57;3.10;;;2.80;;
55603;SDS011;41468;48.838;9.330;2023-10-19T10:26:30;5.07;;;3.05;;
55603;SDS011;41468;48.838;9.330;2023-10-19T10:31:44;4.38;;;3.55;;
55603;SDS011;41468;48.838;9.330;2023-10-19T10:37:07;5.03;;;2.80;;
55603;SDS011;41468;48.838;9.330;2023-10-19T10:39:35;3.22;;;2.92;;
55603;SDS011;41468;48.838;9.330;2023-10-19T10:42:06;2.90;;;2.63;;
55603;SDS011;41468;48.838;9.330;2023-10-19T10:44:35;2.75;;;2.55;;
55603;SDS011;41468;48.838;9.330;2023-10-19T10:47:08;3.10;;;2.60;;
55603;SDS011;41468;48.838;9.330;2023-10-19T10:52:32;4.60;;;3.47;;
55603;SDS011;41468;48.838;9.330;2023-10-19T10:57:43;2.78;;;2.50;;
55603;SDS011;41468;48.838;9.330;2023-10-19T11:00:12;3.45;;;2.75;;
55603;SDS011;41468;48.838;9.330;2023-10-19T11:02:43;3.20;;;2.90;;
55603;SDS011;41468;48.838;9.330;2023-10-19T11:05:16;6.50;;;3.78;;
55603;SDS011;41468;48.838;9.330;2023-10-19T11:10:40;4.32;;;3.95;;
55603;SDS011;41468;48.838;9.330;2023-10-19T11:13:10;2.78;;;2.42;;
55603;SDS011;41468;48.838;9.330;2023-10-19T11:15:38;3.30;;;3.00;;
55603;SDS011;41468;48.838;9.330;2023-10-19T11:18:05;2.78;;;2.58;;
55603;SDS011;41468;48.838;9.330;2023-10-19T11:20:36;4.22;;;2.88;;
55603;SDS011;41468;48.838;9.330;2023-10-19T11:23:02;2.60;;;2.40;;
55603;SDS011;41468;48.838;9.330;2023-10-19T11:25:30;4.18;;;2.67;;
55603;SDS011;41468;48.838;9.330;2023-10-19T11:27:59;4.13;;;2.67;;
55603;SDS011;41468;48.838;9.330;2023-10-19T11:30:30;3.85;;;2.45;;
55603;SDS011;41468;48.838;9.330;2023-10-19T11:32:58;2.33;;;2.13;;
55603;SDS011;41468;48.838;9.330;2023-10-19T11:35:29;5.97;;;2.45;;
55603;SDS011;41468;48.838;9.330;2023-10-19T11:38:01;4.15;;;2.40;;
55603;SDS011;41468;48.838;9.330;2023-10-19T11:40:29;3.22;;;2.05;;
55603;SDS011;41468;48.838;9.330;2023-10-19T11:42:55;2.42;;;2.10;;
55603;SDS011;41468;48.838;9.330;2023-10-19T11:45:23;2.78;;;2.28;;
55603;SDS011;41468;48.838;9.330;2023-10-19T11:47:52;3.45;;;2.10;;
55603;SDS011;41468;48.838;9.330;2023-10-19T11:50:19;3.30;;;2.58;;
55603;SDS011;41468;48.838;9.330;2023-10-19T11:52:46;2.22;;;2.13;;
55603;SDS011;41468;48.838;9.330;2023-10-19T11:55:13;3.08;;;2.60;;
55603;SDS011;41468;48.838;9.330;2023-10-19T11:57:44;5.45;;;2.55;;
55603;SDS011;41468;48.838;9.330;2023-10-19T12:00:11;3.78;;;2.40;;
55603;SDS011;41468;48.838;9.330;2023-10-19T12:03:00;2.58;;;2.30;;
55603;SDS011;41468;48.838;9.330;2023-10-19T12:05:27;3.35;;;2.38;;
55603;SDS011;41468;48.838;9.330;2023-10-19T12:07:55;4.43;;;2.30;;
55603;SDS011;41468;48.838;9.330;2023-10-19T12:10:23;2.38;;;2.17;;
55603;SDS011;41468;48.838;9.330;2023-10-19T12:12:59;3.80;;;2.85;;
55603;SDS011;41468;48.838;9.330;2023-10-19T12:15:28;2.63;;;2.40;;
55603;SDS011;41468;48.838;9.330;2023-10-19T12:17:56;2.50;;;1.92;;
55603;SDS011;41468;48.838;9.330;2023-10-19T12:20:24;3.10;;;2.33;;
55603;SDS011;41468;48.838;9.330;2023-10-19T12:22:51;3.47;;;2.55;;
55603;SDS011;41468;48.838;9.330;2023-10-19T12:25:21;6.68;;;2.90;;
55603;SDS011;41468;48.838;9.330;2023-10-19T12:28:08;4.10;;;2.87;;
55603;SDS011;41468;48.838;9.330;2023-10-19T12:30:42;3.50;;;2.70;;
55603;SDS011;41468;48.838;9.330;2023-10-19T12:33:10;3.40;;;2.70;;
55603;SDS011;41468;48.838;9.330;2023-10-19T12:35:40;3.78;;;2.60;;
55603;SDS011;41468;48.838;9.330;2023-10-19T12:38:24;6.60;;;3.20;;
55603;SDS011;41468;48.838;9.330;2023-10-19T12:40:52;4.57;;;2.80;;
55603;SDS011;41468;48.838;9.330;2023-10-19T12:43:18;3.75;;;2.78;;
55603;SDS011;41468;48.838;9.330;2023-10-19T12:45:45;4.27;;;3.10;;
55603;SDS011;41468;48.838;9.330;2023-10-19T12:48:17;4.60;;;3.00;;
55603;SDS011;41468;48.838;9.330;2023-10-19T12:50:44;5.38;;;3.22;;
55603;SDS011;41468;48.838;9.330;2023-10-19T12:53:10;5.95;;;4.03;;
55603;SDS011;41468;48.838;9.330;2023-10-19T12:55:38;5.35;;;4.18;;
55603;SDS011;41468;48.838;9.330;2023-10-19T12:58:05;6.70;;;4.50;;
55603;SDS011;41468;48.838;9.330;2023-10-19T13:00:36;5.93;;;3.93;;
55603;SDS011;41468;48.838;9.330;2023-10-19T13:03:03;5.23;;;4.20;;
55603;SDS011;41468;48.838;9.330;2023-10-19T13:05:32;4.43;;;3.73;;
55603;SDS011;41468;48.838;9.330;2023-10-19T13:07:59;4.67;;;2.67;;
55603;SDS011;41468;48.838;9.330;2023-10-19T13:10:30;3.43;;;2.90;;
55603;SDS011;41468;48.838;9.330;2023-10-19T13:13:01;3.93;;;2.67;;
55603;SDS011;41468;48.838;9.330;2023-10-19T13:15:32;5.00;;;3.13;;
55603;SDS011;41468;48.838;9.330;2023-10-19T13:18:01;3.70;;;2.85;;
55603;SDS011;41468;48.838;9.330;2023-10-19T13:20:29;4.25;;;2.90;;
55603;SDS011;41468;48.838;9.330;2023-10-19T13:23:06;5.80;;;3.00;;
55603;SDS011;41468;48.838;9.330;2023-10-19T13:25:38;5.53;;;2.93;;
55603;SDS011;41468;48.838;9.330;2023-10-19T13:28:08;3.85;;;3.50;;
55603;SDS011;41468;48.838;9.330;2023-10-19T13:30:42;3.63;;;3.20;;
55603;SDS011;41468;48.838;9.330;2023-10-19T13:33:14;5.83;;;3.73;;
55603;SDS011;41468;48.838;9.330;2023-10-19T13:35:42;4.47;;;4.07;;
55603;SDS011;41468;48.838;9.330;2023-10-19T13:38:10;6.88;;;4.95;;
55603;SDS011;41468;48.838;9.330;2023-10-19T13:40:40;6.88;;;4.28;;
55603;SDS011;41468;48.838;9.330;2023-10-19T13:43:19;5.60;;;4.20;;
55603;SDS011;41468;48.838;9.330;2023-10-19T13:45:46;5.33;;;3.97;;
55603;SDS011;41468;48.838;9.330;2023-10-19T13:48:14;6.20;;;4.00;;
55603;SDS011;41468;48.838;9.330;2023-10-19T13:50:45;4.67;;;4.17;;
55603;SDS011;41468;48.838;9.330;2023-10-19T13:53:16;5.23;;;4.73;;
55603;SDS011;41468;48.838;9.330;2023-10-19T13:55:43;4.05;;;3.70;;
55603;SDS011;41468;48.838;9.330;2023-10-19T13:58:10;4.10;;;3.70;;
55603;SDS011;41468;48.838;9.330;2023-10-19T14:00:37;6.57;;;3.72;;
55603;SDS011;41468;48.838;9.330;2023-10-19T14:03:08;3.65;;;3.35;;
55603;SDS011;41468;48.838;9.330;2023-10-19T14:05:39;4.07;;;3.47;;
55603;SDS011;41468;48.838;9.330;2023-10-19T14:08:09;5.18;;;3.90;;
55603;SDS011;41468;48.838;9.330;2023-10-19T14:10:43;4.93;;;4.17;;
55603;SDS011;41468;48.838;9.330;2023-10-19T14:13:10;4.40;;;4.00;;
55603;SDS011;41468;48.838;9.330;2023-10-19T14:15:43;6.47;;;4.35;;
55603;SDS011;41468;48.838;9.330;2023-10-19T14:18:10;5.03;;;4.53;;
55603;SDS011;41468;48.838;9.330;2023-10-19T14:20:44;6.53;;;5.43;;
55603;SDS011;41468;48.838;9.330;2023-10-19T14:23:11;7.77;;;5.53;;
55603;SDS011;41468;48.838;9.330;2023-10-19T14:25:38;7.93;;;5.83;;
55603;SDS011;41468;48.838;9.330;2023-10-19T14:28:06;6.30;;;5.70;;
55603;SDS011;41468;48.838;9.330;2023-10-19T14:30:36;11.37;;;5.60;;
55603;SDS011;41468;48.838;9.330;2023-10-19T14:33:03;6.77;;;5.07;;
55603;SDS011;41468;48.838;9.330;2023-10-19T14:35:32;5.03;;;4.50;;
55603;SDS011;41468;48.838;9.330;2023-10-19T14:38:08;6.47;;;4.53;;
55603;SDS011;41468;48.838;9.330;2023-10-19T14:40:36;4.50;;;4.10;;
55603;SDS011;41468;48.838;9.330;2023-10-19T14:43:03;7.43;;;5.17;;
55603;SDS011;41468;48.838;9.330;2023-10-19T14:45:30;6.23;;;5.30;;
55603;SDS011;41468;48.838;9.330;2023-10-19T14:47:57;9.35;;;5.38;;
55603;SDS011;41468;48.838;9.330;2023-10-19T14:50:28;5.90;;;5.03;;
55603;SDS011;41468;48.838;9.330;2023-10-19T14:52:56;7.47;;;4.78;;
55603;SDS011;41468;48.838;9.330;2023-10-19T14:55:34;7.47;;;3.80;;
55603;SDS011;41468;48.838;9.330;2023-10-19T14:58:08;3.93;;;3.40;;
55603;SDS011;41468;48.838;9.330;2023-10-19T15:00:35;5.30;;;3.30;;
55603;SDS011;41468;48.838;9.330;2023-10-19T15:03:09;3.57;;;3.27;;
55603;SDS011;41468;48.838;9.330;2023-10-19T15:05:36;3.60;;;3.27;;
55603;SDS011;41468;48.838;9.330;2023-10-19T15:08:04;4.33;;;3.47;;
55603;SDS011;41468;48.838;9.330;2023-10-19T15:10:34;3.60;;;3.22;;
55603;SDS011;41468;48.838;9.330;2023-10-19T15:13:01;3.53;;;2.70;;
55603;SDS011;41468;48.838;9.330;2023-10-19T15:15:29;3.30;;;3.00;;
55603;SDS011;41468;48.838;9.330;2023-10-19T15:17:56;3.28;;;2.90;;